sensor_id;sensor_type;location;lat;lon;timestamp;temperature;humidity
64549;DHT22;49838;51.798;10.954;2023-04-15T00:01:29;14.20;36.60
64549;DHT22;49838;51.798;10.954;2023-04-15T00:03:58;14.20;36.70
64549;DHT22;49838;51.798;10.954;2023-04-15T00:06:26;14.20;37.00
64549;DHT22;49838;51.798;10.954;2023-04-15T00:08:53;14.20;37.20
64549;DHT22;49838;51.798;10.954;2023-04-15T00:11:22;14.10;37.10
64549;DHT22;49838;51.798;10.954;2023-04-15T00:13:50;14.10;37.30
64549;DHT22;49838;51.798;10.954;2023-04-15T00:16:17;14.10;37.50
64549;DHT22;49838;51.798;10.954;2023-04-15T00:18:46;14.00;37.50
64549;DHT22;49838;51.798;10.954;2023-04-15T00:21:13;14.00;37.40
64549;DHT22;49838;51.798;10.954;2023-04-15T00:23:41;14.00;37.30
64549;DHT22;49838;51.798;10.954;2023-04-15T00:26:08;14.00;37.30
64549;DHT22;49838;51.798;10.954;2023-04-15T00:28:36;14.10;37.30
64549;DHT22;49838;51.798;10.954;2023-04-15T00:31:03;14.10;37.30
64549;DHT22;49838;51.798;10.954;2023-04-15T00:33:31;14.10;37.50
64549;DHT22;49838;51.798;10.954;2023-04-15T00:36:00;13.90;37.30
64549;DHT22;49838;51.798;10.954;2023-04-15T00:38:27;14.00;37.30
64549;DHT22;49838;51.798;10.954;2023-04-15T00:40:55;14.00;37.30
64549;DHT22;49838;51.798;10.954;2023-04-15T00:43:22;14.10;37.40
64549;DHT22;49838;51.798;10.954;2023-04-15T00:45:56;14.00;37.30
64549;DHT22;49838;51.798;10.954;2023-04-15T00:48:25;14.00;37.40
64549;DHT22;49838;51.798;10.954;2023-04-15T00:50:53;14.00;38.10
64549;DHT22;49838;51.798;10.954;2023-04-15T00:53:22;14.00;37.60
64549;DHT22;49838;51.798;10.954;2023-04-15T00:55:49;13.90;37.60
64549;DHT22;49838;51.798;10.954;2023-04-15T00:58:17;14.00;37.90
64549;DHT22;49838;51.798;10.954;2023-04-15T01:00:45;13.90;37.90
64549;DHT22;49838;51.798;10.954;2023-04-15T01:03:12;13.90;38.00
64549;DHT22;49838;51.798;10.954;2023-04-15T01:05:42;13.90;37.90
64549;DHT22;49838;51.798;10.954;2023-04-15T01:08:09;13.80;37.90
64549;DHT22;49838;51.798;10.954;2023-04-15T01:10:38;13.80;37.80
64549;DHT22;49838;51.798;10.954;2023-04-15T01:13:05;13.80;38.50
64549;DHT22;49838;51.798;10.954;2023-04-15T01:15:33;13.80;37.90
64549;DHT22;49838;51.798;10.954;2023-04-15T01:18:02;13.80;38.00
64549;DHT22;49838;51.798;10.954;2023-04-15T01:20:29;13.80;38.10
64549;DHT22;49838;51.798;10.954;2023-04-15T01:22:56;13.70;38.10
64549;DHT22;49838;51.798;10.954;2023-04-15T01:25:27;13.70;38.00
64549;DHT22;49838;51.798;10.954;2023-04-15T01:27:58;13.70;38.10
64549;DHT22;49838;51.798;10.954;2023-04-15T01:30:25;13.70;38.10
64549;DHT22;49838;51.798;10.954;2023-04-15T01:32:52;13.70;38.40
64549;DHT22;49838;51.798;10.954;2023-04-15T01:35:20;13.60;38.10
64549;DHT22;49838;51.798;10.954;2023-04-15T01:37:47;13.70;38.20
64549;DHT22;49838;51.798;10.954;2023-04-15T01:40:16;13.60;38.10
64549;DHT22;49838;51.798;10.954;2023-04-15T01:42:44;13.60;38.00
64549;DHT22;49838;51.798;10.954;2023-04-15T01:45:12;13.60;38.00
64549;DHT22;49838;51.798;10.954;2023-04-15T01:47:39;13.60;38.60
64549;DHT22;49838;51.798;10.954;2023-04-15T01:50:06;13.60;38.30
64549;DHT22;49838;51.798;10.954;2023-04-15T01:52:34;13.60;38.30
64549;DHT22;49838;51.798;10.954;2023-04-15T01:55:01;13.60;38.50
64549;DHT22;49838;51.798;10.954;2023-04-15T01:57:29;13.50;38.30
64549;DHT22;49838;51.798;10.954;2023-04-15T01:59:57;13.50;38.30
64549;DHT22;49838;51.798;10.954;2023-04-15T02:02:24;13.50;38.40
64549;DHT22;49838;51.798;10.954;2023-04-15T02:04:52;13.60;38.70
64549;DHT22;49838;51.798;10.954;2023-04-15T02:07:19;13.50;38.70
64549;DHT22;49838;51.798;10.954;2023-04-15T02:09:46;13.40;38.60
64549;DHT22;49838;51.798;10.954;2023-04-15T02:12:13;13.40;38.70
64549;DHT22;49838;51.798;10.954;2023-04-15T02:14:41;13.50;38.80
64549;DHT22;49838;51.798;10.954;2023-04-15T02:17:09;13.40;38.70
64549;DHT22;49838;51.798;10.954;2023-04-15T02:19:36;13.40;38.70
64549;DHT22;49838;51.798;10.954;2023-04-15T02:22:04;13.40;38.90
64549;DHT22;49838;51.798;10.954;2023-04-15T02:24:32;13.40;39.00
64549;DHT22;49838;51.798;10.954;2023-04-15T02:26:59;13.40;39.10
64549;DHT22;49838;51.798;10.954;2023-04-15T02:29:28;13.30;39.10
64549;DHT22;49838;51.798;10.954;2023-04-15T02:31:57;13.30;39.30
64549;DHT22;49838;51.798;10.954;2023-04-15T02:34:25;13.30;39.40
64549;DHT22;49838;51.798;10.954;2023-04-15T02:36:54;13.30;39.60
64549;DHT22;49838;51.798;10.954;2023-04-15T02:39:22;13.30;39.80
64549;DHT22;49838;51.798;10.954;2023-04-15T02:41:49;13.20;39.60
64549;DHT22;49838;51.798;10.954;2023-04-15T02:44:17;13.20;39.60
64549;DHT22;49838;51.798;10.954;2023-04-15T02:46:45;13.20;39.60
64549;DHT22;49838;51.798;10.954;2023-04-15T02:49:15;13.20;39.50
64549;DHT22;49838;51.798;10.954;2023-04-15T02:51:44;13.20;39.60
64549;DHT22;49838;51.798;10.954;2023-04-15T02:54:14;13.20;39.80
64549;DHT22;49838;51.798;10.954;2023-04-15T02:56:41;13.20;39.80
64549;DHT22;49838;51.798;10.954;2023-04-15T02:59:08;13.20;39.90
64549;DHT22;49838;51.798;10.954;2023-04-15T03:01:36;13.20;40.10
64549;DHT22;49838;51.798;10.954;2023-04-15T03:04:03;13.10;39.90
64549;DHT22;49838;51.798;10.954;2023-04-15T03:06:32;13.10;39.80
64549;DHT22;49838;51.798;10.954;2023-04-15T03:09:01;13.20;39.80
64549;DHT22;49838;51.798;10.954;2023-04-15T03:11:28;13.20;39.90
64549;DHT22;49838;51.798;10.954;2023-04-15T03:13:56;13.20;40.00
64549;DHT22;49838;51.798;10.954;2023-04-15T03:16:23;13.10;39.90
64549;DHT22;49838;51.798;10.954;2023-04-15T03:18:51;13.10;40.00
64549;DHT22;49838;51.798;10.954;2023-04-15T03:21:18;13.10;40.10
64549;DHT22;49838;51.798;10.954;2023-04-15T03:23:47;13.10;40.20
64549;DHT22;49838;51.798;10.954;2023-04-15T03:26:24;13.10;40.40
64549;DHT22;49838;51.798;10.954;2023-04-15T03:28:53;13.10;40.40
64549;DHT22;49838;51.798;10.954;2023-04-15T03:31:20;13.10;40.40
64549;DHT22;49838;51.798;10.954;2023-04-15T03:33:48;13.10;40.50
64549;DHT22;49838;51.798;10.954;2023-04-15T03:36:16;13.00;40.30
64549;DHT22;49838;51.798;10.954;2023-04-15T03:38:43;13.10;40.30
64549;DHT22;49838;51.798;10.954;2023-04-15T03:41:11;13.10;40.50
64549;DHT22;49838;51.798;10.954;2023-04-15T03:43:40;13.00;40.70
64549;DHT22;49838;51.798;10.954;2023-04-15T03:46:08;13.00;40.70
64549;DHT22;49838;51.798;10.954;2023-04-15T03:48:35;13.00;40.60
64549;DHT22;49838;51.798;10.954;2023-04-15T03:51:02;12.90;40.60
64549;DHT22;49838;51.798;10.954;2023-04-15T03:53:29;13.00;40.60
64549;DHT22;49838;51.798;10.954;2023-04-15T03:55:56;13.00;40.50
64549;DHT22;49838;51.798;10.954;2023-04-15T03:58:24;13.00;40.60
64549;DHT22;49838;51.798;10.954;2023-04-15T04:00:52;13.00;40.80
64549;DHT22;49838;51.798;10.954;2023-04-15T04:03:20;12.90;40.60
64549;DHT22;49838;51.798;10.954;2023-04-15T04:05:47;13.00;40.80
64549;DHT22;49838;51.798;10.954;2023-04-15T04:08:15;13.00;40.90
64549;DHT22;49838;51.798;10.954;2023-04-15T04:10:44;12.90;41.00
64549;DHT22;49838;51.798;10.954;2023-04-15T04:13:11;12.90;41.00
64549;DHT22;49838;51.798;10.954;2023-04-15T04:15:38;12.90;41.10
64549;DHT22;49838;51.798;10.954;2023-04-15T04:18:07;12.90;41.10
64549;DHT22;49838;51.798;10.954;2023-04-15T04:20:34;12.90;41.20
64549;DHT22;49838;51.798;10.954;2023-04-15T04:23:01;12.80;41.10
64549;DHT22;49838;51.798;10.954;2023-04-15T04:25:29;12.90;41.40
64549;DHT22;49838;51.798;10.954;2023-04-15T04:27:56;12.80;41.40
64549;DHT22;49838;51.798;10.954;2023-04-15T04:30:23;12.80;41.50
64549;DHT22;49838;51.798;10.954;2023-04-15T04:32:50;12.80;41.70
64549;DHT22;49838;51.798;10.954;2023-04-15T04:35:19;12.70;41.70
64549;DHT22;49838;51.798;10.954;2023-04-15T04:37:46;12.80;41.70
64549;DHT22;49838;51.798;10.954;2023-04-15T04:40:14;12.80;41.90
64549;DHT22;49838;51.798;10.954;2023-04-15T04:42:41;12.70;42.00
64549;DHT22;49838;51.798;10.954;2023-04-15T04:45:08;12.70;42.20
64549;DHT22;49838;51.798;10.954;2023-04-15T04:47:36;12.70;42.10
64549;DHT22;49838;51.798;10.954;2023-04-15T04:50:04;12.80;42.00
64549;DHT22;49838;51.798;10.954;2023-04-15T04:52:33;12.70;42.00
64549;DHT22;49838;51.798;10.954;2023-04-15T04:55:00;12.70;42.40
64549;DHT22;49838;51.798;10.954;2023-04-15T04:57:27;12.70;42.50
64549;DHT22;49838;51.798;10.954;2023-04-15T04:59:54;12.80;42.40
64549;DHT22;49838;51.798;10.954;2023-04-15T05:02:22;12.70;42.20
64549;DHT22;49838;51.798;10.954;2023-04-15T05:04:51;12.80;42.50
64549;DHT22;49838;51.798;10.954;2023-04-15T05:07:20;12.80;42.40
64549;DHT22;49838;51.798;10.954;2023-04-15T05:09:48;12.70;42.50
64549;DHT22;49838;51.798;10.954;2023-04-15T05:12:16;12.70;42.60
64549;DHT22;49838;51.798;10.954;2023-04-15T05:14:43;12.70;42.50
64549;DHT22;49838;51.798;10.954;2023-04-15T05:17:11;12.80;42.40
64549;DHT22;49838;51.798;10.954;2023-04-15T05:19:38;12.80;42.60
64549;DHT22;49838;51.798;10.954;2023-04-15T05:22:06;12.80;42.40
64549;DHT22;49838;51.798;10.954;2023-04-15T05:24:33;12.80;42.60
64549;DHT22;49838;51.798;10.954;2023-04-15T05:27:02;12.80;42.50
64549;DHT22;49838;51.798;10.954;2023-04-15T05:29:30;12.80;42.60
64549;DHT22;49838;51.798;10.954;2023-04-15T05:31:57;12.90;42.70
64549;DHT22;49838;51.798;10.954;2023-04-15T05:34:24;12.90;42.60
64549;DHT22;49838;51.798;10.954;2023-04-15T05:36:51;12.90;43.40
64549;DHT22;49838;51.798;10.954;2023-04-15T05:39:18;12.90;42.60
64549;DHT22;49838;51.798;10.954;2023-04-15T05:41:46;12.90;42.60
64549;DHT22;49838;51.798;10.954;2023-04-15T05:44:14;12.90;42.50
64549;DHT22;49838;51.798;10.954;2023-04-15T05:46:42;12.90;42.80
64549;DHT22;49838;51.798;10.954;2023-04-15T05:49:09;12.90;42.70
64549;DHT22;49838;51.798;10.954;2023-04-15T05:51:36;13.00;42.80
64549;DHT22;49838;51.798;10.954;2023-04-15T05:54:04;13.00;42.90
64549;DHT22;49838;51.798;10.954;2023-04-15T05:56:31;13.00;42.90
64549;DHT22;49838;51.798;10.954;2023-04-15T05:58:58;13.10;42.90
64549;DHT22;49838;51.798;10.954;2023-04-15T06:01:27;13.10;42.90
64549;DHT22;49838;51.798;10.954;2023-04-15T06:03:55;13.10;42.80
64549;DHT22;49838;51.798;10.954;2023-04-15T06:06:22;13.10;42.80
64549;DHT22;49838;51.798;10.954;2023-04-15T06:08:50;13.10;42.80
64549;DHT22;49838;51.798;10.954;2023-04-15T06:11:17;13.20;42.80
64549;DHT22;49838;51.798;10.954;2023-04-15T06:13:46;13.20;42.80
64549;DHT22;49838;51.798;10.954;2023-04-15T06:16:13;13.30;43.00
64549;DHT22;49838;51.798;10.954;2023-04-15T06:18:42;13.30;42.80
64549;DHT22;49838;51.798;10.954;2023-04-15T06:21:09;13.30;42.80
64549;DHT22;49838;51.798;10.954;2023-04-15T06:23:36;13.30;42.90
64549;DHT22;49838;51.798;10.954;2023-04-15T06:26:05;13.30;42.90
64549;DHT22;49838;51.798;10.954;2023-04-15T06:28:33;13.40;42.90
64549;DHT22;49838;51.798;10.954;2023-04-15T06:31:00;13.40;43.00
64549;DHT22;49838;51.798;10.954;2023-04-15T06:33:28;13.40;43.00
64549;DHT22;49838;51.798;10.954;2023-04-15T06:35:56;13.40;43.10
64549;DHT22;49838;51.798;10.954;2023-04-15T06:38:23;13.40;43.20
64549;DHT22;49838;51.798;10.954;2023-04-15T06:40:51;13.40;43.30
64549;DHT22;49838;51.798;10.954;2023-04-15T06:43:18;13.40;43.50
64549;DHT22;49838;51.798;10.954;2023-04-15T06:45:45;13.40;43.60
64549;DHT22;49838;51.798;10.954;2023-04-15T06:48:13;13.40;43.60
64549;DHT22;49838;51.798;10.954;2023-04-15T06:50:40;13.40;43.70
64549;DHT22;49838;51.798;10.954;2023-04-15T06:53:09;13.40;43.60
64549;DHT22;49838;51.798;10.954;2023-04-15T06:55:36;13.40;43.50
64549;DHT22;49838;51.798;10.954;2023-04-15T06:58:03;13.50;43.50
64549;DHT22;49838;51.798;10.954;2023-04-15T07:00:31;13.50;43.60
64549;DHT22;49838;51.798;10.954;2023-04-15T07:02:58;13.50;43.80
64549;DHT22;49838;51.798;10.954;2023-04-15T07:05:28;13.50;43.80
64549;DHT22;49838;51.798;10.954;2023-04-15T07:07:55;13.50;44.00
64549;DHT22;49838;51.798;10.954;2023-04-15T07:10:24;13.50;44.00
64549;DHT22;49838;51.798;10.954;2023-04-15T07:12:51;13.60;44.00
64549;DHT22;49838;51.798;10.954;2023-04-15T07:15:18;13.60;44.30
64549;DHT22;49838;51.798;10.954;2023-04-15T07:17:47;13.60;44.20
64549;DHT22;49838;51.798;10.954;2023-04-15T07:20:14;13.60;44.10
64549;DHT22;49838;51.798;10.954;2023-04-15T07:22:41;13.60;44.30
64549;DHT22;49838;51.798;10.954;2023-04-15T07:25:08;13.70;44.40
64549;DHT22;49838;51.798;10.954;2023-04-15T07:27:37;13.70;44.60
64549;DHT22;49838;51.798;10.954;2023-04-15T07:30:05;13.60;44.50
64549;DHT22;49838;51.798;10.954;2023-04-15T07:32:34;13.70;44.60
64549;DHT22;49838;51.798;10.954;2023-04-15T07:35:01;13.70;44.50
64549;DHT22;49838;51.798;10.954;2023-04-15T07:37:28;13.70;44.40
64549;DHT22;49838;51.798;10.954;2023-04-15T07:39:55;13.70;44.40
64549;DHT22;49838;51.798;10.954;2023-04-15T07:42:23;13.70;44.40
64549;DHT22;49838;51.798;10.954;2023-04-15T07:44:52;13.70;44.70
64549;DHT22;49838;51.798;10.954;2023-04-15T07:47:19;13.70;44.90
64549;DHT22;49838;51.798;10.954;2023-04-15T07:49:46;13.70;44.90
64549;DHT22;49838;51.798;10.954;2023-04-15T07:52:14;13.70;45.00
64549;DHT22;49838;51.798;10.954;2023-04-15T07:54:41;13.70;45.00
64549;DHT22;49838;51.798;10.954;2023-04-15T07:57:08;13.70;45.00
64549;DHT22;49838;51.798;10.954;2023-04-15T07:59:36;13.70;44.90
64549;DHT22;49838;51.798;10.954;2023-04-15T08:02:04;13.70;44.90
64549;DHT22;49838;51.798;10.954;2023-04-15T08:04:31;13.70;45.00
64549;DHT22;49838;51.798;10.954;2023-04-15T08:06:59;13.70;45.00
64549;DHT22;49838;51.798;10.954;2023-04-15T08:09:26;13.70;45.00
64549;DHT22;49838;51.798;10.954;2023-04-15T08:11:53;13.80;45.20
64549;DHT22;49838;51.798;10.954;2023-04-15T08:14:21;13.70;45.30
64549;DHT22;49838;51.798;10.954;2023-04-15T08:16:48;13.80;45.50
64549;DHT22;49838;51.798;10.954;2023-04-15T08:19:17;13.80;45.60
64549;DHT22;49838;51.798;10.954;2023-04-15T08:21:44;13.80;45.50
64549;DHT22;49838;51.798;10.954;2023-04-15T08:24:11;13.80;45.40
64549;DHT22;49838;51.798;10.954;2023-04-15T08:26:39;13.80;45.40
64549;DHT22;49838;51.798;10.954;2023-04-15T08:29:06;13.90;45.50
64549;DHT22;49838;51.798;10.954;2023-04-15T08:31:34;13.90;45.60
64549;DHT22;49838;51.798;10.954;2023-04-15T08:34:01;13.90;45.50
64549;DHT22;49838;51.798;10.954;2023-04-15T08:36:29;13.90;45.50
64549;DHT22;49838;51.798;10.954;2023-04-15T08:38:57;14.00;45.50
64549;DHT22;49838;51.798;10.954;2023-04-15T08:41:26;14.00;45.60
64549;DHT22;49838;51.798;10.954;2023-04-15T08:44:01;14.00;45.60
64549;DHT22;49838;51.798;10.954;2023-04-15T08:46:30;14.00;45.60
64549;DHT22;49838;51.798;10.954;2023-04-15T08:49:02;14.00;45.60
64549;DHT22;49838;51.798;10.954;2023-04-15T08:51:31;14.10;45.50
64549;DHT22;49838;51.798;10.954;2023-04-15T08:53:59;14.10;45.50
64549;DHT22;49838;51.798;10.954;2023-04-15T08:56:27;14.20;45.60
64549;DHT22;49838;51.798;10.954;2023-04-15T08:58:57;14.20;46.40
64549;DHT22;49838;51.798;10.954;2023-04-15T09:01:25;14.20;45.70
64549;DHT22;49838;51.798;10.954;2023-04-15T09:03:53;14.20;45.70
64549;DHT22;49838;51.798;10.954;2023-04-15T09:06:22;14.20;45.80
64549;DHT22;49838;51.798;10.954;2023-04-15T09:08:51;14.20;46.10
64549;DHT22;49838;51.798;10.954;2023-04-15T09:11:19;14.20;46.00
64549;DHT22;49838;51.798;10.954;2023-04-15T09:13:47;14.30;46.00
64549;DHT22;49838;51.798;10.954;2023-04-15T09:16:15;14.40;46.60
64549;DHT22;49838;51.798;10.954;2023-04-15T09:18:43;14.30;46.00
64549;DHT22;49838;51.798;10.954;2023-04-15T09:21:11;14.40;45.70
64549;DHT22;49838;51.798;10.954;2023-04-15T09:23:40;14.50;45.80
64549;DHT22;49838;51.798;10.954;2023-04-15T09:26:30;14.50;45.70
64549;DHT22;49838;51.798;10.954;2023-04-15T09:29:02;14.60;45.80
64549;DHT22;49838;51.798;10.954;2023-04-15T09:31:31;14.60;45.80
64549;DHT22;49838;51.798;10.954;2023-04-15T09:33:58;14.60;45.90
64549;DHT22;49838;51.798;10.954;2023-04-15T09:36:26;14.60;45.90
64549;DHT22;49838;51.798;10.954;2023-04-15T09:38:54;14.60;46.00
64549;DHT22;49838;51.798;10.954;2023-04-15T09:41:23;14.60;46.00
64549;DHT22;49838;51.798;10.954;2023-04-15T09:43:51;14.60;46.10
64549;DHT22;49838;51.798;10.954;2023-04-15T09:46:19;14.60;46.10
64549;DHT22;49838;51.798;10.954;2023-04-15T09:48:46;14.60;46.00
64549;DHT22;49838;51.798;10.954;2023-04-15T09:51:33;14.60;46.00
64549;DHT22;49838;51.798;10.954;2023-04-15T09:54:01;14.60;46.00
64549;DHT22;49838;51.798;10.954;2023-04-15T09:56:31;14.60;46.00
64549;DHT22;49838;51.798;10.954;2023-04-15T09:59:02;14.70;46.10
64549;DHT22;49838;51.798;10.954;2023-04-15T10:01:31;14.70;45.90
64549;DHT22;49838;51.798;10.954;2023-04-15T10:03:59;14.70;46.00
64549;DHT22;49838;51.798;10.954;2023-04-15T10:06:29;14.70;45.90
64549;DHT22;49838;51.798;10.954;2023-04-15T10:08:57;14.80;46.10
64549;DHT22;49838;51.798;10.954;2023-04-15T10:11:25;14.70;46.20
64549;DHT22;49838;51.798;10.954;2023-04-15T10:13:55;14.70;46.20
64549;DHT22;49838;51.798;10.954;2023-04-15T10:16:25;14.70;46.30
64549;DHT22;49838;51.798;10.954;2023-04-15T10:18:54;14.70;46.40
64549;DHT22;49838;51.798;10.954;2023-04-15T10:21:23;14.70;46.40
64549;DHT22;49838;51.798;10.954;2023-04-15T10:23:50;14.70;46.30
64549;DHT22;49838;51.798;10.954;2023-04-15T10:26:19;14.70;46.30
64549;DHT22;49838;51.798;10.954;2023-04-15T10:28:47;14.70;47.00
64549;DHT22;49838;51.798;10.954;2023-04-15T10:31:15;14.70;46.40
64549;DHT22;49838;51.798;10.954;2023-04-15T10:33:44;14.70;47.10
64549;DHT22;49838;51.798;10.954;2023-04-15T10:36:13;14.70;46.60
64549;DHT22;49838;51.798;10.954;2023-04-15T10:38:42;14.70;46.60
64549;DHT22;49838;51.798;10.954;2023-04-15T10:41:11;14.70;46.60
64549;DHT22;49838;51.798;10.954;2023-04-15T10:43:44;14.80;46.60
64549;DHT22;49838;51.798;10.954;2023-04-15T10:46:12;14.80;46.60
64549;DHT22;49838;51.798;10.954;2023-04-15T10:48:47;14.80;46.60
64549;DHT22;49838;51.798;10.954;2023-04-15T10:51:15;14.80;46.70
64549;DHT22;49838;51.798;10.954;2023-04-15T10:53:42;14.80;46.80
64549;DHT22;49838;51.798;10.954;2023-04-15T10:56:09;14.80;46.80
64549;DHT22;49838;51.798;10.954;2023-04-15T10:58:42;14.80;46.80
64549;DHT22;49838;51.798;10.954;2023-04-15T11:01:10;14.80;46.80
64549;DHT22;49838;51.798;10.954;2023-04-15T11:03:39;14.80;47.00
64549;DHT22;49838;51.798;10.954;2023-04-15T11:06:10;14.80;47.00
64549;DHT22;49838;51.798;10.954;2023-04-15T11:09:00;14.80;47.10
64549;DHT22;49838;51.798;10.954;2023-04-15T11:14:39;14.80;47.10
64549;DHT22;49838;51.798;10.954;2023-04-15T11:17:08;14.80;47.10
64549;DHT22;49838;51.798;10.954;2023-04-15T11:19:36;14.80;47.10
64549;DHT22;49838;51.798;10.954;2023-04-15T11:22:08;14.80;47.20
64549;DHT22;49838;51.798;10.954;2023-04-15T11:24:36;14.80;47.20
64549;DHT22;49838;51.798;10.954;2023-04-15T11:27:19;14.80;47.30
64549;DHT22;49838;51.798;10.954;2023-04-15T11:29:47;14.80;47.40
64549;DHT22;49838;51.798;10.954;2023-04-15T11:32:14;14.80;47.50
64549;DHT22;49838;51.798;10.954;2023-04-15T11:34:41;14.80;47.50
64549;DHT22;49838;51.798;10.954;2023-04-15T11:37:12;14.80;47.40
64549;DHT22;49838;51.798;10.954;2023-04-15T11:39:40;14.80;47.40
64549;DHT22;49838;51.798;10.954;2023-04-15T11:42:15;14.90;47.50
64549;DHT22;49838;51.798;10.954;2023-04-15T11:44:42;14.90;47.50
64549;DHT22;49838;51.798;10.954;2023-04-15T11:47:20;14.90;47.50
64549;DHT22;49838;51.798;10.954;2023-04-15T11:49:48;14.90;47.60
64549;DHT22;49838;51.798;10.954;2023-04-15T11:52:17;14.90;47.60
64549;DHT22;49838;51.798;10.954;2023-04-15T11:54:44;14.90;47.70
64549;DHT22;49838;51.798;10.954;2023-04-15T11:57:12;14.80;47.70
64549;DHT22;49838;51.798;10.954;2023-04-15T11:59:42;14.80;47.70
64549;DHT22;49838;51.798;10.954;2023-04-15T12:02:11;14.80;47.70
64549;DHT22;49838;51.798;10.954;2023-04-15T12:04:38;14.80;47.70
64549;DHT22;49838;51.798;10.954;2023-04-15T12:07:06;14.80;47.70
64549;DHT22;49838;51.798;10.954;2023-04-15T12:09:37;14.80;47.90
64549;DHT22;49838;51.798;10.954;2023-04-15T12:12:05;14.70;48.00
64549;DHT22;49838;51.798;10.954;2023-04-15T12:14:32;14.70;48.10
64549;DHT22;49838;51.798;10.954;2023-04-15T12:17:02;14.70;48.10
64549;DHT22;49838;51.798;10.954;2023-04-15T12:19:33;14.70;48.20
64549;DHT22;49838;51.798;10.954;2023-04-15T12:22:02;14.70;48.20
64549;DHT22;49838;51.798;10.954;2023-04-15T12:24:31;14.70;48.20
64549;DHT22;49838;51.798;10.954;2023-04-15T12:27:03;14.70;48.20
64549;DHT22;49838;51.798;10.954;2023-04-15T12:29:33;14.70;48.20
64549;DHT22;49838;51.798;10.954;2023-04-15T12:32:03;14.80;48.20
64549;DHT22;49838;51.798;10.954;2023-04-15T12:34:32;14.80;48.20
64549;DHT22;49838;51.798;10.954;2023-04-15T12:37:02;14.80;48.10
64549;DHT22;49838;51.798;10.954;2023-04-15T12:39:30;14.80;48.10
64549;DHT22;49838;51.798;10.954;2023-04-15T12:42:01;14.90;48.00
64549;DHT22;49838;51.798;10.954;2023-04-15T12:44:31;14.90;48.20
64549;DHT22;49838;51.798;10.954;2023-04-15T12:46:59;14.90;48.10
64549;DHT22;49838;51.798;10.954;2023-04-15T12:49:26;14.90;48.20
64549;DHT22;49838;51.798;10.954;2023-04-15T12:51:55;14.90;48.20
64549;DHT22;49838;51.798;10.954;2023-04-15T12:54:26;14.90;48.20
64549;DHT22;49838;51.798;10.954;2023-04-15T12:56:53;14.90;48.30
64549;DHT22;49838;51.798;10.954;2023-04-15T12:59:22;14.90;48.50
64549;DHT22;49838;51.798;10.954;2023-04-15T13:01:50;14.90;48.90
64549;DHT22;49838;51.798;10.954;2023-04-15T13:04:18;14.80;48.70
64549;DHT22;49838;51.798;10.954;2023-04-15T13:06:46;14.80;48.70
64549;DHT22;49838;51.798;10.954;2023-04-15T13:09:14;14.70;48.60
64549;DHT22;49838;51.798;10.954;2023-04-15T13:11:41;14.70;48.60
64549;DHT22;49838;51.798;10.954;2023-04-15T13:14:09;14.80;49.00
64549;DHT22;49838;51.798;10.954;2023-04-15T13:16:39;14.80;48.90
64549;DHT22;49838;51.798;10.954;2023-04-15T13:19:06;14.70;48.70
64549;DHT22;49838;51.798;10.954;2023-04-15T13:21:33;14.70;48.70
64549;DHT22;49838;51.798;10.954;2023-04-15T13:24:01;14.70;48.70
64549;DHT22;49838;51.798;10.954;2023-04-15T13:26:29;14.80;49.00
64549;DHT22;49838;51.798;10.954;2023-04-15T13:28:56;14.70;48.70
64549;DHT22;49838;51.798;10.954;2023-04-15T13:31:24;14.80;48.90
64549;DHT22;49838;51.798;10.954;2023-04-15T13:33:53;14.70;48.60
64549;DHT22;49838;51.798;10.954;2023-04-15T13:36:23;14.70;48.60
64549;DHT22;49838;51.798;10.954;2023-04-15T13:38:53;14.80;48.60
64549;DHT22;49838;51.798;10.954;2023-04-15T13:41:20;14.80;48.60
64549;DHT22;49838;51.798;10.954;2023-04-15T13:43:47;14.80;48.70
64549;DHT22;49838;51.798;10.954;2023-04-15T13:46:15;14.90;48.90
64549;DHT22;49838;51.798;10.954;2023-04-15T13:48:42;14.90;49.30
64549;DHT22;49838;51.798;10.954;2023-04-15T13:51:11;14.80;48.90
64549;DHT22;49838;51.798;10.954;2023-04-15T13:53:38;14.80;48.90
64549;DHT22;49838;51.798;10.954;2023-04-15T13:56:06;14.90;48.80
64549;DHT22;49838;51.798;10.954;2023-04-15T13:58:33;14.90;48.70
64549;DHT22;49838;51.798;10.954;2023-04-15T14:01:01;14.90;48.60
64549;DHT22;49838;51.798;10.954;2023-04-15T14:03:29;15.00;48.60
64549;DHT22;49838;51.798;10.954;2023-04-15T14:05:56;15.10;48.60
64549;DHT22;49838;51.798;10.954;2023-04-15T14:08:25;15.20;48.50
64549;DHT22;49838;51.798;10.954;2023-04-15T14:10:52;15.20;48.40
64549;DHT22;49838;51.798;10.954;2023-04-15T14:13:19;15.20;48.30
64549;DHT22;49838;51.798;10.954;2023-04-15T14:15:46;15.20;48.30
64549;DHT22;49838;51.798;10.954;2023-04-15T14:18:13;15.30;48.40
64549;DHT22;49838;51.798;10.954;2023-04-15T14:20:41;15.30;48.30
64549;DHT22;49838;51.798;10.954;2023-04-15T14:23:08;15.40;48.30
64549;DHT22;49838;51.798;10.954;2023-04-15T14:25:36;15.40;48.30
64549;DHT22;49838;51.798;10.954;2023-04-15T14:28:04;15.40;48.40
64549;DHT22;49838;51.798;10.954;2023-04-15T14:30:31;15.40;48.40
64549;DHT22;49838;51.798;10.954;2023-04-15T14:32:58;15.40;48.40
64549;DHT22;49838;51.798;10.954;2023-04-15T14:35:26;15.40;48.40
64549;DHT22;49838;51.798;10.954;2023-04-15T14:37:53;15.40;48.40
64549;DHT22;49838;51.798;10.954;2023-04-15T14:40:21;15.50;48.50
64549;DHT22;49838;51.798;10.954;2023-04-15T14:42:49;15.50;48.30
64549;DHT22;49838;51.798;10.954;2023-04-15T14:45:16;15.60;48.40
64549;DHT22;49838;51.798;10.954;2023-04-15T14:47:44;15.60;48.40
64549;DHT22;49838;51.798;10.954;2023-04-15T14:50:11;15.50;48.40
64549;DHT22;49838;51.798;10.954;2023-04-15T14:52:38;15.50;48.40
64549;DHT22;49838;51.798;10.954;2023-04-15T14:55:07;15.50;48.50
64549;DHT22;49838;51.798;10.954;2023-04-15T14:57:35;15.60;48.60
64549;DHT22;49838;51.798;10.954;2023-04-15T15:00:05;15.50;48.50
64549;DHT22;49838;51.798;10.954;2023-04-15T15:02:33;15.50;48.60
64549;DHT22;49838;51.798;10.954;2023-04-15T15:05:01;15.50;48.60
64549;DHT22;49838;51.798;10.954;2023-04-15T15:07:28;15.60;48.70
64549;DHT22;49838;51.798;10.954;2023-04-15T15:09:56;15.60;48.70
64549;DHT22;49838;51.798;10.954;2023-04-15T15:12:23;15.60;48.70
64549;DHT22;49838;51.798;10.954;2023-04-15T15:14:50;15.60;48.70
64549;DHT22;49838;51.798;10.954;2023-04-15T15:17:19;15.60;48.70
64549;DHT22;49838;51.798;10.954;2023-04-15T15:19:46;15.60;48.80
64549;DHT22;49838;51.798;10.954;2023-04-15T15:22:13;15.60;48.90
64549;DHT22;49838;51.798;10.954;2023-04-15T15:24:40;15.60;48.80